createdAt,value
2019-03-27T00:03:34.609Z,94667.97
2019-03-27T00:06:03.421Z,94666.28
2019-03-27T00:08:32.273Z,94655.27
2019-03-27T00:11:01.361Z,94658.67
2019-03-27T00:13:30.152Z,94667.57
2019-03-27T00:19:01.278Z,94660.44
2019-03-27T00:21:29.802Z,94659.61
2019-03-27T00:27:01.686Z,94663.39
2019-03-27T00:29:30.552Z,94657.87
2019-03-27T00:32:39.460Z,94659.57
2019-03-27T00:41:30.277Z,94656.23
2019-03-27T00:47:08.642Z,94648.25
2019-03-27T00:49:37.471Z,94650.78
2019-03-27T00:52:06.682Z,94650.76
2019-03-27T00:54:35.893Z,94647.85
2019-03-27T00:57:04.717Z,94652.98
2019-03-27T01:00:13.378Z,94649.14
2019-03-27T01:03:00.911Z,94651.27
2019-03-27T01:05:29.390Z,94646.16
2019-03-27T01:14:00.622Z,94646.09
2019-03-27T01:16:29.462Z,94652.03
2019-03-27T01:18:58.561Z,94641.45
2019-03-27T01:21:27.607Z,94645.20
2019-03-27T01:23:55.331Z,94642.59
2019-03-27T01:26:42.885Z,94646.74
2019-03-27T01:29:12.036Z,94638.70
2019-03-27T01:34:42.764Z,94641.67
2019-03-27T01:37:11.986Z,94641.28
2019-03-27T01:39:41.198Z,94646.80
2019-03-27T01:42:09.982Z,94643.84
2019-03-27T01:44:38.400Z,94643.91
2019-03-27T01:47:07.154Z,94640.13
2019-03-27T01:52:56.747Z,94638.41
2019-03-27T01:55:25.513Z,94632.99
2019-03-27T01:57:54.331Z,94629.16
2019-03-27T02:00:23.442Z,94627.86
2019-03-27T02:02:52.262Z,94624.03
2019-03-27T02:05:20.856Z,94623.16
2019-03-27T02:07:49.387Z,94623.94
2019-03-27T02:10:18.142Z,94623.89
2019-03-27T02:12:47.061Z,94631.83
2019-03-27T02:15:16.286Z,94630.63
2019-03-27T02:17:45.027Z,94625.18
2019-03-27T02:20:14.283Z,94628.56
2019-03-27T02:22:43.436Z,94629.85
2019-03-27T02:25:12.376Z,94623.11
2019-03-27T02:27:41.171Z,94623.59
2019-03-27T02:30:49.667Z,94623.14
2019-03-27T02:33:30.089Z,94627.81
2019-03-27T02:39:00.105Z,94619.31
2019-03-27T02:41:29.243Z,94626.07
2019-03-27T02:43:58.057Z,94628.20
2019-03-27T02:46:26.937Z,94630.34
2019-03-27T02:48:56.198Z,94629.08
2019-03-27T02:51:25.281Z,94633.30
2019-03-27T02:56:35.450Z,94637.50
2019-03-27T02:59:04.551Z,94634.97
2019-03-27T03:01:51.433Z,94632.41
2019-03-27T03:04:20.654Z,94633.67
2019-03-27T03:06:49.875Z,94635.39
2019-03-27T03:09:18.631Z,94638.47
2019-03-27T03:11:58.826Z,94637.20
2019-03-27T03:17:27.459Z,94636.80
2019-03-27T03:19:55.986Z,94638.40
2019-03-27T03:22:36.707Z,94640.03
2019-03-27T03:25:45.373Z,94636.69
2019-03-27T03:28:13.882Z,94639.17
2019-03-27T03:33:44.790Z,94633.16
2019-03-27T03:39:46.592Z,94636.66
2019-03-27T03:42:15.429Z,94638.77
2019-03-27T03:44:44.531Z,94632.83
2019-03-27T03:47:13.357Z,94635.39
2019-03-27T03:49:42.571Z,94634.10
2019-03-27T03:52:22.676Z,94634.55
2019-03-27T03:55:31.540Z,94635.42
2019-03-27T04:10:19.369Z,94643.66
2019-03-27T04:13:07.263Z,94644.02
2019-03-27T04:15:36.160Z,94642.67
2019-03-27T04:21:27.103Z,94646.83
2019-03-27T04:24:02.854Z,94642.64
2019-03-27T04:26:33.477Z,94644.81
2019-03-27T04:29:08.601Z,94640.16
2019-03-27T04:31:56.151Z,94646.08
2019-03-27T04:34:24.702Z,94642.67
2019-03-27T04:36:53.808Z,94641.38
2019-03-27T04:42:29.879Z,94648.06
2019-03-27T04:44:58.302Z,94637.19
2019-03-27T04:47:32.531Z,94635.13
2019-03-27T04:50:04.637Z,94638.98
2019-03-27T04:52:44.673Z,94638.14
2019-03-27T04:55:13.903Z,94641.15
2019-03-27T04:57:54.082Z,94640.75
2019-03-27T05:00:23.257Z,94643.23
2019-03-27T05:02:52.068Z,94640.67
2019-03-27T05:05:20.504Z,94641.94
2019-03-27T05:08:28.687Z,94641.06
2019-03-27T05:10:57.230Z,94643.97
2019-03-27T05:13:26.423Z,94649.45
2019-03-27T05:16:06.670Z,94646.83
2019-03-27T05:18:35.389Z,94658.13
2019-03-27T05:21:03.878Z,94660.59
2019-03-27T05:26:34.201Z,94668.62
2019-03-27T05:29:03.278Z,94668.23
2019-03-27T05:31:31.771Z,94669.95
2019-03-27T05:34:00.597Z,94670.38
2019-03-27T05:45:13.513Z,94675.98
2019-03-27T05:47:42.842Z,94677.80
2019-03-27T05:50:23.515Z,94677.41
2019-03-27T05:53:04.262Z,94683.34
2019-03-27T05:58:35.904Z,94685.09
2019-03-27T06:04:07.037Z,94690.10
2019-03-27T06:06:36.279Z,94690.92
2019-03-27T06:12:26.617Z,94696.02
2019-03-27T06:14:55.802Z,94696.05
2019-03-27T06:17:24.977Z,94707.48
2019-03-27T06:20:33.472Z,94700.36
2019-03-27T06:23:01.967Z,94700.38
2019-03-27T06:25:31.248Z,94702.13
2019-03-27T06:27:59.431Z,94699.20
2019-03-27T06:33:37.553Z,94700.10
2019-03-27T06:36:06.442Z,94706.94
2019-03-27T06:38:35.588Z,94700.62
2019-03-27T06:41:16.515Z,94699.76
2019-03-27T06:44:16.687Z,94699.76
2019-03-27T06:46:45.933Z,94701.89
2019-03-27T06:49:54.816Z,94699.45
2019-03-27T06:52:34.851Z,94699.97
2019-03-27T06:55:43.508Z,94703.87
2019-03-27T06:58:12.614Z,94697.59
2019-03-27T07:00:41.677Z,94697.62
2019-03-27T07:03:10.489Z,94698.89
2019-03-27T07:05:39.724Z,94712.41
2019-03-27T07:11:21.853Z,94709.73
2019-03-27T07:13:50.677Z,94712.25
2019-03-27T07:16:59.549Z,94708.92
2019-03-27T07:19:28.822Z,94718.27
2019-03-27T07:28:08.125Z,94718.42
2019-03-27T07:30:36.927Z,94717.63
2019-03-27T07:33:06.166Z,94721.91
2019-03-27T07:36:15.162Z,94724.83
2019-03-27T07:38:54.812Z,94729.47
2019-03-27T07:41:42.335Z,94734.18
2019-03-27T07:44:11.538Z,94737.64
2019-03-27T07:50:01.132Z,94736.89
2019-03-27T07:52:41.837Z,94733.54
2019-03-27T07:55:50.342Z,94736.92
2019-03-27T08:01:20.682Z,94743.67
2019-03-27T08:03:49.577Z,94738.98
2019-03-27T08:06:18.689Z,94741.92
2019-03-27T08:08:47.787Z,94743.20
2019-03-27T08:11:16.717Z,94745.73
2019-03-27T08:13:45.989Z,94744.92
2019-03-27T08:16:14.886Z,94749.18
2019-03-27T08:18:43.725Z,94748.36
2019-03-27T08:21:12.663Z,94750.50
2019-03-27T08:23:40.743Z,94751.77
2019-03-27T08:26:08.856Z,94748.41
2019-03-27T08:28:37.819Z,94757.32
2019-03-27T08:31:06.037Z,94755.20
2019-03-27T08:33:35.208Z,94758.62
2019-03-27T08:36:04.323Z,94753.52
2019-03-27T08:38:33.217Z,94761.56
2019-03-27T08:41:02.141Z,94753.91
2019-03-27T08:43:30.191Z,94756.50
2019-03-27T08:45:59.531Z,94757.36
2019-03-27T08:48:28.284Z,94759.07
2019-03-27T08:50:57.638Z,94760.35
2019-03-27T08:53:26.527Z,94755.69
2019-03-27T08:55:55.689Z,94756.50
2019-03-27T08:58:24.574Z,94753.11
2019-03-27T09:01:24.692Z,94751.38
2019-03-27T09:03:53.809Z,94762.84
2019-03-27T09:06:33.161Z,94750.51
2019-03-27T09:08:59.418Z,94753.86
2019-03-27T09:11:28.442Z,94750.84
2019-03-27T09:13:57.293Z,94757.17
2019-03-27T09:16:26.463Z,94752.81
2019-03-27T09:19:36.348Z,94756.55
2019-03-27T09:22:15.747Z,94759.56
2019-03-27T09:24:44.570Z,94766.39
2019-03-27T09:27:13.417Z,94765.06
2019-03-27T09:29:42.220Z,94769.17
2019-03-27T09:32:23.078Z,94767.70
2019-03-27T09:34:52.414Z,94764.11
2019-03-27T09:40:24.273Z,94766.09
2019-03-27T09:43:11.778Z,94762.16
2019-03-27T09:48:50.119Z,94766.01
2019-03-27T09:51:18.980Z,94770.82
2019-03-27T09:53:47.878Z,94770.89
2019-03-27T09:56:19.463Z,94774.55
2019-03-27T09:58:54.279Z,94776.97
2019-03-27T10:04:32.817Z,94771.05
2019-03-27T10:07:01.209Z,94776.58
2019-03-27T10:12:30.480Z,94774.70
2019-03-27T10:14:59.574Z,94770.66
2019-03-27T10:20:27.350Z,94775.75
2019-03-27T10:22:56.561Z,94773.02
2019-03-27T10:25:25.462Z,94768.56
2019-03-27T10:27:53.973Z,94762.91
2019-03-27T10:30:23.102Z,94769.80
2019-03-27T10:33:32.060Z,94764.33
2019-03-27T10:36:01.012Z,94770.38
2019-03-27T10:38:51.211Z,94773.42
2019-03-27T10:41:19.713Z,94779.23
2019-03-27T10:43:48.917Z,94777.97
2019-03-27T10:46:17.707Z,94780.96
2019-03-27T10:48:52.767Z,94779.45
2019-03-27T10:51:17.560Z,94776.18
2019-03-27T10:53:46.653Z,94781.02
2019-03-27T10:56:15.525Z,94776.70
2019-03-27T10:58:44.403Z,94773.94
2019-03-27T11:01:13.598Z,94768.84
2019-03-27T11:03:42.260Z,94768.65
2019-03-27T11:06:11.068Z,94774.34
2019-03-27T11:08:39.520Z,94767.28
2019-03-27T11:11:08.754Z,94772.74
2019-03-27T11:13:37.254Z,94773.08
2019-03-27T11:16:06.064Z,94774.03
2019-03-27T11:18:34.497Z,94771.59
2019-03-27T11:21:03.402Z,94770.81
2019-03-27T11:23:32.713Z,94769.62
2019-03-27T11:26:01.588Z,94771.84
2019-03-27T11:28:30.456Z,94772.88
2019-03-27T11:34:19.957Z,94768.59
2019-03-27T11:40:29.296Z,94756.22
2019-03-27T11:42:57.825Z,94754.30
2019-03-27T11:45:26.666Z,94759.32
2019-03-27T11:47:55.452Z,94749.80
2019-03-27T11:51:03.896Z,94753.28
2019-03-27T11:54:12.843Z,94747.61
2019-03-27T11:56:41.353Z,94747.36
2019-03-27T11:59:09.883Z,94733.97
2019-03-27T12:01:43.388Z,94733.06
2019-03-27T12:04:16.316Z,94730.38
2019-03-27T12:06:57.261Z,94735.63
2019-03-27T12:09:26.463Z,94740.45
2019-03-27T12:11:55.191Z,94739.94
2019-03-27T12:14:24.315Z,94749.62
2019-03-27T12:16:53.614Z,94742.31
2019-03-27T12:19:22.448Z,94741.16
2019-03-27T12:21:54.562Z,94738.36
2019-03-27T12:24:29.022Z,94738.14
2019-03-27T12:27:37.529Z,94733.72
2019-03-27T12:33:26.955Z,94740.75
2019-03-27T12:35:55.714Z,94746.83
2019-03-27T12:41:38.212Z,94753.47
2019-03-27T12:44:06.463Z,94749.08
2019-03-27T12:46:34.956Z,94753.19
2019-03-27T12:49:04.303Z,94758.96
2019-03-27T12:51:33.458Z,94755.30
2019-03-27T12:54:02.419Z,94751.20
2019-03-27T12:57:11.365Z,94753.84
2019-03-27T12:59:40.639Z,94755.50
2019-03-27T13:05:19.035Z,94756.77
2019-03-27T13:07:50.158Z,94751.94
2019-03-27T13:10:24.649Z,94750.08
2019-03-27T13:12:54.043Z,94747.23
2019-03-27T13:15:22.935Z,94749.30
2019-03-27T13:17:51.418Z,94748.02
2019-03-27T13:23:22.939Z,94734.16
2019-03-27T13:25:51.369Z,94739.55
2019-03-27T13:28:20.281Z,94732.34
2019-03-27T13:30:49.442Z,94735.12
2019-03-27T13:33:18.810Z,94730.34
2019-03-27T13:35:47.756Z,94738.69
2019-03-27T13:38:16.736Z,94739.82
2019-03-27T13:40:46.121Z,94742.17
2019-03-27T13:43:15.081Z,94729.89
2019-03-27T13:45:43.978Z,94735.90
2019-03-27T13:48:12.794Z,94732.91
2019-03-27T13:50:41.928Z,94731.55
2019-03-27T13:53:10.869Z,94734.52
2019-03-27T13:55:39.993Z,94738.31
2019-03-27T13:58:08.749Z,94737.02
2019-03-27T14:00:37.583Z,94740.88
2019-03-27T14:03:26.005Z,94739.66
2019-03-27T14:06:06.458Z,94740.98
2019-03-27T14:08:35.418Z,94742.31
2019-03-27T14:11:44.398Z,94736.82
2019-03-27T14:14:12.899Z,94732.64
2019-03-27T14:16:41.724Z,94737.34
2019-03-27T14:19:10.644Z,94734.75
2019-03-27T14:21:55.046Z,94735.57
2019-03-27T14:24:22.162Z,94730.90
2019-03-27T14:32:54.027Z,94735.09
2019-03-27T14:36:02.913Z,94734.02
2019-03-27T14:38:31.423Z,94732.53
2019-03-27T14:41:00.270Z,94733.63
2019-03-27T14:43:41.627Z,94740.71
2019-03-27T14:46:10.708Z,94740.78
2019-03-27T14:48:39.283Z,94745.50
2019-03-27T14:51:08.470Z,94744.80
2019-03-27T14:53:37.338Z,94742.76
2019-03-27T14:59:27.408Z,94751.07
2019-03-27T15:05:37.111Z,94744.47
2019-03-27T15:11:07.900Z,94746.45
2019-03-27T15:13:36.822Z,94742.67
2019-03-27T15:16:06.038Z,94744.44
2019-03-27T15:19:14.586Z,94749.21
2019-03-27T15:21:43.473Z,94751.86
2019-03-27T15:24:12.395Z,94749.35
2019-03-27T15:26:41.135Z,94756.63
2019-03-27T15:29:10.129Z,94753.62
2019-03-27T15:34:19.864Z,94748.52
2019-03-27T15:36:49.144Z,94750.52
2019-03-27T15:39:18.400Z,94752.68
2019-03-27T15:41:47.248Z,94754.88
2019-03-27T15:46:56.160Z,94757.54
2019-03-27T15:49:24.615Z,94761.41
2019-03-27T15:51:53.473Z,94764.05
2019-03-27T15:54:22.323Z,94764.13
2019-03-27T15:56:51.299Z,94760.36
2019-03-27T16:02:48.760Z,94752.75
2019-03-27T16:05:17.615Z,94753.57
2019-03-27T16:07:46.909Z,94752.71
2019-03-27T16:10:18.374Z,94760.77
2019-03-27T16:12:46.623Z,94755.17
2019-03-27T16:15:55.515Z,94760.68
2019-03-27T16:18:36.064Z,94761.16
2019-03-27T16:21:05.278Z,94762.03
2019-03-27T16:23:34.507Z,94763.66
2019-03-27T16:26:03.729Z,94763.26
2019-03-27T16:28:32.656Z,94765.81
2019-03-27T16:34:12.935Z,94769.41
2019-03-27T16:36:42.058Z,94768.12
2019-03-27T16:39:51.074Z,94768.53
2019-03-27T16:42:20.193Z,94768.97
2019-03-27T16:44:49.492Z,94769.77
2019-03-27T16:47:30.671Z,94768.02
2019-03-27T16:49:59.723Z,94774.41
2019-03-27T16:52:29.007Z,94772.69
2019-03-27T16:54:57.583Z,94772.63
2019-03-27T16:57:26.913Z,94778.56
2019-03-27T17:00:15.580Z,94778.97
2019-03-27T17:03:03.614Z,94780.26
2019-03-27T17:05:32.253Z,94781.19
2019-03-27T17:08:01.577Z,94786.39
2019-03-27T17:11:10.544Z,94782.61
2019-03-27T17:13:39.289Z,94795.38
2019-03-27T17:16:08.545Z,94794.54
2019-03-27T17:21:37.735Z,94803.08
2019-03-27T17:24:05.965Z,94807.74
2019-03-27T17:26:34.958Z,94808.61
2019-03-27T17:29:43.944Z,94813.30
2019-03-27T17:35:14.390Z,94817.58
2019-03-27T17:43:54.648Z,94822.27
2019-03-27T17:46:23.770Z,94818.45
2019-03-27T17:52:13.184Z,94823.56
2019-03-27T17:54:42.339Z,94829.09
2019-03-27T17:57:11.217Z,94824.82
2019-03-27T18:00:20.168Z,94830.76
2019-03-27T18:02:49.093Z,94831.20
2019-03-27T18:12:00.589Z,94836.28
2019-03-27T18:17:49.904Z,94839.69
2019-03-27T18:20:19.182Z,94837.55
2019-03-27T18:22:48.485Z,94837.54
2019-03-27T18:25:57.449Z,94837.55
2019-03-27T18:31:27.736Z,94840.03
2019-03-27T18:34:36.719Z,94851.88
2019-03-27T18:37:36.534Z,94849.28
2019-03-27T18:43:27.243Z,94850.90
2019-03-27T18:49:06.164Z,94864.89
2019-03-27T18:51:47.198Z,94866.56
2019-03-27T18:57:17.178Z,94877.21
2019-03-27T18:59:46.132Z,94874.65
2019-03-27T19:02:26.873Z,94875.10
2019-03-27T19:04:55.456Z,94875.92
2019-03-27T19:08:04.452Z,94877.64
2019-03-27T19:10:33.394Z,94881.88
2019-03-27T19:16:04.646Z,94883.14
2019-03-27T19:18:33.245Z,94887.33
2019-03-27T19:21:02.523Z,94893.63
2019-03-27T19:26:44.980Z,94891.38
2019-03-27T19:29:45.171Z,94898.91
2019-03-27T19:32:33.202Z,94899.74
2019-03-27T19:37:23.870Z,94891.23
2019-03-27T19:39:52.104Z,94895.42
2019-03-27T19:45:40.873Z,94894.02
2019-03-27T19:48:09.400Z,94893.48
2019-03-27T19:50:38.558Z,94895.94
2019-03-27T19:53:07.547Z,94895.88
2019-03-27T19:55:48.239Z,94901.29
2019-03-27T19:58:17.449Z,94896.16
2019-03-27T20:00:46.770Z,94899.86
2019-03-27T20:06:36.795Z,94900.47
2019-03-27T20:09:46.803Z,94904.66
2019-03-27T20:12:16.101Z,94910.53
2019-03-27T20:14:44.725Z,94918.41
2019-03-27T20:17:13.318Z,94915.38
2019-03-27T20:19:42.552Z,94916.17
2019-03-27T20:22:11.913Z,94916.17
2019-03-27T20:24:41.494Z,94915.25
2019-03-27T20:27:51.299Z,94923.69
2019-03-27T20:37:03.516Z,94915.28
2019-03-27T20:39:32.726Z,94918.44
2019-03-27T20:42:41.670Z,94917.59
2019-03-27T20:45:10.608Z,94914.17
2019-03-27T20:47:39.179Z,94909.19
2019-03-27T20:50:08.497Z,94908.77
2019-03-27T20:52:37.893Z,94910.41
2019-03-27T20:55:07.295Z,94908.77
2019-03-27T20:57:36.673Z,94916.00
2019-03-27T21:00:46.041Z,94917.08
2019-03-27T21:06:28.459Z,94915.86
2019-03-27T21:08:57.643Z,94912.48
2019-03-27T21:11:26.940Z,94917.50
2019-03-27T21:13:55.461Z,94915.77
2019-03-27T21:16:24.422Z,94913.65
2019-03-27T21:18:52.943Z,94918.28
2019-03-27T21:24:23.148Z,94921.25
2019-03-27T21:26:52.312Z,94921.30
2019-03-27T21:29:21.614Z,94915.30
2019-03-27T21:32:30.664Z,94913.12
2019-03-27T21:38:20.532Z,94915.48
2019-03-27T21:47:01.240Z,94910.62
2019-03-27T21:49:49.326Z,94913.95
2019-03-27T21:55:42.992Z,94909.69
2019-03-27T21:58:17.289Z,94910.05
2019-03-27T22:00:46.670Z,94912.52
2019-03-27T22:03:36.202Z,94905.25
2019-03-27T22:06:05.890Z,94913.11
2019-03-27T22:09:14.893Z,94907.13
2019-03-27T22:12:03.476Z,94912.63
2019-03-27T22:14:53.515Z,94914.98
2019-03-27T22:17:23.254Z,94914.98
2019-03-27T22:19:52.638Z,94918.11
2019-03-27T22:22:41.529Z,94915.37
2019-03-27T22:25:09.950Z,94921.92
2019-03-27T22:27:39.602Z,94926.19
2019-03-27T22:33:11.573Z,94925.22
2019-03-27T22:41:44.943Z,94932.57
2019-03-27T22:44:14.624Z,94930.28
2019-03-27T22:46:43.705Z,94935.02
2019-03-27T22:49:12.981Z,94933.64
2019-03-27T22:51:42.406Z,94934.84
2019-03-27T22:54:11.312Z,94941.41
2019-03-27T22:56:52.001Z,94942.77
2019-03-27T22:59:41.071Z,94940.74
2019-03-27T23:02:10.453Z,94935.39
2019-03-27T23:08:11.914Z,94942.84
2019-03-27T23:10:53.313Z,94940.83
2019-03-27T23:13:41.844Z,94942.27
2019-03-27T23:16:11.885Z,94938.33
2019-03-27T23:18:59.878Z,94938.33
2019-03-27T23:21:47.899Z,94939.04
2019-03-27T23:26:56.966Z,94933.91
2019-03-27T23:30:06.009Z,94934.27
2019-03-27T23:33:14.566Z,94936.92
2019-03-27T23:36:24.143Z,94938.40
2019-03-27T23:39:32.261Z,94938.70
2019-03-27T23:42:01.514Z,94932.03
2019-03-27T23:44:31.545Z,94935.89
2019-03-27T23:47:20.331Z,94933.08
2019-03-27T23:49:49.775Z,94932.25
2019-03-27T23:52:37.639Z,94930.16
2019-03-27T23:55:18.374Z,94928.96
2019-03-27T23:58:28.217Z,94929.91
